createdAt,value
2019-05-20T00:00:31.334Z,51.30
2019-05-20T00:03:00.059Z,51.50
2019-05-20T00:05:28.777Z,51.50
2019-05-20T00:07:57.531Z,51.50
2019-05-20T00:10:26.341Z,52.20
2019-05-20T00:12:55.041Z,51.60
2019-05-20T00:15:23.787Z,51.60
2019-05-20T00:17:52.805Z,51.50
2019-05-20T00:20:21.417Z,51.60
2019-05-20T00:22:50.099Z,51.50
2019-05-20T00:25:18.942Z,51.60
2019-05-20T00:27:47.817Z,51.60
2019-05-20T00:30:17.445Z,51.60
2019-05-20T00:32:46.312Z,51.60
2019-05-20T00:35:15.174Z,51.60
2019-05-20T00:37:44.056Z,51.70
2019-05-20T00:40:13.033Z,51.50
2019-05-20T00:42:41.830Z,51.40
2019-05-20T00:45:12.099Z,51.40
2019-05-20T00:47:40.889Z,51.30
2019-05-20T00:50:10.794Z,51.10
2019-05-20T00:52:39.624Z,51.00
2019-05-20T00:55:10.178Z,50.90
2019-05-20T00:57:40.125Z,51.00
2019-05-20T01:00:09.818Z,50.90
2019-05-20T01:02:38.549Z,50.80
2019-05-20T01:05:07.466Z,50.90
2019-05-20T01:07:36.220Z,50.80
2019-05-20T01:10:06.527Z,50.70
2019-05-20T01:12:35.324Z,50.70
2019-05-20T01:15:04.920Z,50.70
2019-05-20T01:17:33.716Z,50.90
2019-05-20T01:20:02.790Z,50.90
2019-05-20T01:22:31.580Z,51.00
2019-05-20T01:25:00.399Z,51.00
2019-05-20T01:27:29.299Z,51.00
2019-05-20T01:29:58.164Z,51.00
2019-05-20T01:32:26.954Z,51.70
2019-05-20T01:34:55.732Z,51.20
2019-05-20T01:37:24.563Z,51.40
2019-05-20T01:39:53.365Z,51.60
2019-05-20T01:42:22.200Z,51.60
2019-05-20T01:44:51.011Z,51.70
2019-05-20T01:47:19.856Z,51.80
2019-05-20T01:49:48.758Z,51.90
2019-05-20T01:52:17.541Z,52.00
2019-05-20T01:54:46.394Z,52.20
2019-05-20T01:57:15.209Z,52.40
2019-05-20T01:59:44.011Z,52.50
2019-05-20T02:02:12.762Z,52.80
2019-05-20T02:04:41.651Z,52.90
2019-05-20T02:07:10.410Z,53.30
2019-05-20T02:09:39.297Z,53.50
2019-05-20T02:12:08.099Z,53.90
2019-05-20T02:14:47.591Z,54.10
2019-05-20T02:17:17.635Z,54.20
2019-05-20T02:19:46.409Z,54.40
2019-05-20T02:22:15.331Z,54.30
2019-05-20T02:24:44.237Z,54.10
2019-05-20T02:27:13.005Z,53.50
2019-05-20T02:29:41.805Z,52.70
2019-05-20T02:32:10.602Z,51.60
2019-05-20T02:34:39.515Z,50.20
2019-05-20T02:37:08.368Z,49.00
2019-05-20T02:39:37.250Z,47.80
2019-05-20T02:42:06.084Z,47.30
2019-05-20T02:44:34.875Z,46.80
2019-05-20T02:47:03.752Z,46.00
2019-05-20T02:49:32.603Z,45.40
2019-05-20T02:52:01.396Z,44.90
2019-05-20T02:54:30.270Z,45.10
2019-05-20T02:56:59.117Z,46.10
2019-05-20T02:59:27.875Z,47.40
2019-05-20T03:01:56.754Z,49.00
2019-05-20T03:04:25.661Z,50.10
2019-05-20T03:06:54.446Z,51.50
2019-05-20T03:09:23.223Z,52.20
2019-05-20T03:11:52.026Z,53.60
2019-05-20T03:14:20.776Z,54.60
2019-05-20T03:16:49.668Z,55.40
2019-05-20T03:19:18.473Z,56.30
2019-05-20T03:21:47.337Z,56.70
2019-05-20T03:24:16.287Z,56.80
2019-05-20T03:26:45.183Z,56.60
2019-05-20T03:29:14.548Z,56.70
2019-05-20T03:31:43.436Z,56.80
2019-05-20T03:34:40.895Z,57.00
2019-05-20T03:36:42.713Z,57.10
2019-05-20T03:39:11.620Z,56.70
2019-05-20T03:41:40.404Z,55.60
2019-05-20T03:44:09.195Z,56.10
2019-05-20T03:46:38.052Z,55.90
2019-05-20T03:49:06.831Z,56.00
2019-05-20T03:55:07.748Z,56.00
2019-05-20T03:57:36.560Z,56.20
2019-05-20T04:00:06.631Z,56.40
2019-05-20T04:02:35.570Z,56.50
2019-05-20T04:05:04.965Z,56.60
2019-05-20T04:07:33.754Z,56.50
2019-05-20T04:10:02.622Z,56.90
2019-05-20T04:12:31.362Z,56.80
2019-05-20T04:15:00.150Z,56.90
2019-05-20T04:17:29.007Z,56.60
2019-05-20T04:19:57.951Z,56.50
2019-05-20T04:22:26.851Z,56.30
2019-05-20T04:24:57.318Z,55.70
2019-05-20T04:27:26.143Z,55.50
2019-05-20T04:29:54.927Z,55.20
2019-05-20T04:32:23.701Z,55.40
2019-05-20T04:34:52.557Z,57.00
2019-05-20T04:37:21.385Z,62.50
2019-05-20T04:39:50.204Z,66.30
2019-05-20T04:42:18.989Z,65.90
2019-05-20T04:44:47.782Z,68.40
2019-05-20T04:47:16.547Z,68.60
2019-05-20T04:49:45.376Z,69.10
2019-05-20T04:55:54.976Z,68.80
2019-05-20T04:58:23.769Z,67.50
2019-05-20T05:00:54.871Z,67.40
2019-05-20T05:03:24.223Z,66.60
2019-05-20T05:05:53.218Z,67.10
2019-05-20T05:08:22.427Z,67.20
2019-05-20T05:10:51.587Z,66.90
2019-05-20T05:13:21.383Z,67.00
2019-05-20T05:15:50.163Z,66.40
2019-05-20T05:18:19.099Z,65.70
2019-05-20T05:20:48.385Z,65.20
2019-05-20T05:23:17.344Z,64.00
2019-05-20T05:25:46.530Z,62.80
2019-05-20T05:28:15.336Z,61.90
2019-05-20T05:30:45.835Z,60.50
2019-05-20T05:33:14.642Z,57.10
2019-05-20T05:35:52.710Z,52.10
2019-05-20T05:38:14.005Z,47.10
2019-05-20T05:40:42.960Z,44.90
2019-05-20T05:43:11.891Z,44.00
2019-05-20T05:45:40.696Z,44.00
2019-05-20T05:48:09.497Z,43.90
2019-05-20T05:50:38.270Z,44.50
2019-05-20T05:53:07.158Z,45.60
2019-05-20T05:55:36.038Z,46.50
2019-05-20T05:58:08.392Z,46.50
2019-05-20T06:00:35.367Z,47.40
2019-05-20T06:03:04.155Z,46.20
2019-05-20T06:05:32.979Z,45.70
2019-05-20T06:08:01.825Z,47.00
2019-05-20T06:10:30.628Z,47.60
2019-05-20T06:12:59.407Z,48.30
2019-05-20T06:15:28.221Z,48.60
2019-05-20T06:17:56.984Z,49.90
2019-05-20T06:20:25.893Z,51.00
2019-05-20T06:22:54.676Z,51.70
2019-05-20T06:25:23.433Z,51.20
2019-05-20T06:27:52.228Z,50.70
2019-05-20T06:30:23.982Z,48.30
2019-05-20T06:32:53.050Z,43.10
2019-05-20T06:35:21.837Z,39.00
2019-05-20T06:37:52.262Z,35.00
2019-05-20T06:40:21.059Z,33.30
2019-05-20T06:42:49.848Z,31.30
2019-05-20T06:45:18.641Z,30.70
2019-05-20T06:47:47.483Z,30.40
2019-05-20T06:50:16.943Z,31.80
2019-05-20T06:52:45.761Z,34.70
2019-05-20T06:55:15.287Z,36.60
2019-05-20T06:57:44.081Z,38.60
2019-05-20T07:00:13.665Z,39.50
2019-05-20T07:02:42.446Z,40.20
2019-05-20T07:05:11.535Z,40.50
2019-05-20T07:07:40.411Z,38.90
2019-05-20T07:10:10.517Z,38.50
2019-05-20T07:12:41.576Z,38.10
2019-05-20T07:15:10.203Z,38.90
2019-05-20T07:17:39.055Z,39.50
2019-05-20T07:20:07.993Z,39.10
2019-05-20T07:22:53.897Z,38.50
2019-05-20T07:25:07.669Z,38.60
2019-05-20T07:27:36.570Z,38.10
2019-05-20T07:30:09.643Z,37.10
2019-05-20T07:32:38.499Z,37.60
2019-05-20T07:35:08.283Z,38.50
2019-05-20T07:37:37.178Z,37.80
2019-05-20T07:40:07.114Z,37.00
2019-05-20T07:42:35.912Z,36.30
2019-05-20T07:45:07.039Z,36.70
2019-05-20T07:47:36.104Z,36.00
2019-05-20T07:50:09.394Z,36.00
2019-05-20T07:52:38.674Z,34.90
2019-05-20T07:55:08.825Z,34.00
2019-05-20T07:57:40.751Z,33.60
2019-05-20T08:00:10.302Z,34.10
2019-05-20T08:02:39.492Z,35.60
2019-05-20T08:05:09.519Z,36.20
2019-05-20T08:07:51.377Z,35.60
2019-05-20T08:10:09.249Z,35.60
2019-05-20T08:12:38.090Z,35.00
2019-05-20T08:15:08.201Z,33.40
2019-05-20T08:17:36.964Z,30.40
2019-05-20T08:20:07.302Z,28.30
2019-05-20T08:22:36.105Z,26.50
2019-05-20T08:25:06.832Z,24.60
2019-05-20T08:27:35.707Z,23.30
2019-05-20T08:30:06.729Z,22.00
2019-05-20T08:32:35.545Z,21.80
2019-05-20T08:35:06.079Z,22.30
2019-05-20T08:37:44.799Z,23.60
2019-05-20T08:40:06.534Z,24.90
2019-05-20T08:42:35.328Z,26.10
2019-05-20T08:45:06.302Z,27.00
2019-05-20T08:47:35.059Z,27.70
2019-05-20T08:50:08.230Z,28.70
2019-05-20T08:52:35.959Z,29.30
2019-05-20T08:55:05.288Z,29.90
2019-05-20T08:57:34.191Z,30.10
2019-05-20T09:00:03.507Z,30.80
2019-05-20T09:02:32.446Z,31.10
2019-05-20T09:05:01.234Z,31.10
2019-05-20T09:07:30.046Z,30.70
2019-05-20T09:09:58.846Z,30.60
2019-05-20T09:12:27.675Z,30.00
2019-05-20T09:14:56.464Z,30.30
2019-05-20T09:17:25.235Z,30.20
2019-05-20T09:19:54.168Z,30.90
2019-05-20T09:22:22.931Z,31.60
2019-05-20T09:24:51.896Z,31.80
2019-05-20T09:27:20.825Z,32.30
2019-05-20T09:29:49.620Z,32.10
2019-05-20T09:32:18.456Z,32.00
2019-05-20T09:34:47.534Z,32.00
2019-05-20T09:37:16.368Z,32.30
2019-05-20T09:39:45.138Z,32.40
2019-05-20T09:42:13.947Z,32.30
2019-05-20T09:44:42.765Z,32.10
2019-05-20T09:47:11.541Z,32.20
2019-05-20T09:49:40.425Z,32.20
2019-05-20T09:52:09.312Z,32.50
2019-05-20T09:54:38.138Z,32.30
2019-05-20T09:57:06.879Z,32.10
2019-05-20T09:59:43.447Z,31.50
2019-05-20T10:02:06.088Z,31.10
2019-05-20T10:04:34.962Z,31.50
2019-05-20T10:07:03.791Z,31.50
2019-05-20T10:09:32.570Z,31.80
2019-05-20T10:12:01.436Z,31.70
2019-05-20T10:14:30.212Z,31.90
2019-05-20T10:16:58.956Z,32.30
2019-05-20T10:19:27.736Z,32.60
2019-05-20T10:21:56.519Z,32.40
2019-05-20T10:24:25.355Z,32.40
2019-05-20T10:26:54.237Z,31.70
2019-05-20T10:29:23.055Z,30.40
2019-05-20T10:31:51.869Z,30.40
2019-05-20T10:34:20.656Z,30.30
2019-05-20T10:36:49.480Z,29.30
2019-05-20T10:39:18.265Z,28.00
2019-05-20T10:41:47.090Z,28.20
2019-05-20T10:44:15.914Z,27.90
2019-05-20T10:46:44.780Z,28.20
2019-05-20T10:49:13.582Z,27.80
2019-05-20T10:51:42.398Z,27.70
2019-05-20T10:54:11.166Z,28.30
2019-05-20T10:56:39.918Z,27.70
2019-05-20T10:59:11.965Z,27.30
2019-05-20T11:01:39.282Z,27.50
2019-05-20T11:04:08.136Z,27.80
2019-05-20T11:06:36.984Z,27.30
2019-05-20T11:09:14.008Z,26.90
2019-05-20T11:11:39.451Z,27.10
2019-05-20T11:14:07.452Z,27.00
2019-05-20T11:16:36.326Z,26.80
2019-05-20T11:19:05.125Z,26.60
2019-05-20T11:21:34.004Z,27.00
2019-05-20T11:24:03.416Z,27.10
2019-05-20T11:26:32.164Z,27.20
2019-05-20T11:29:01.457Z,27.20
2019-05-20T11:31:30.225Z,27.10
2019-05-20T11:33:59.059Z,27.40
2019-05-20T11:36:27.910Z,27.80
2019-05-20T11:38:56.729Z,27.70
2019-05-20T11:41:52.135Z,27.60
2019-05-20T11:43:56.334Z,27.40
2019-05-20T11:46:25.231Z,27.60
2019-05-20T11:48:54.027Z,27.90
2019-05-20T11:51:22.844Z,28.10
2019-05-20T11:53:51.625Z,28.20
2019-05-20T11:56:20.437Z,28.00
2019-05-20T11:58:49.187Z,27.80
2019-05-20T12:01:18.116Z,28.10
2019-05-20T12:03:46.873Z,27.80
2019-05-20T12:06:15.687Z,26.90
2019-05-20T12:08:44.469Z,26.50
2019-05-20T12:11:13.211Z,26.30
2019-05-20T12:13:42.121Z,25.60
2019-05-20T12:16:10.945Z,25.20
2019-05-20T12:18:39.769Z,25.10
2019-05-20T12:21:08.619Z,24.70
2019-05-20T12:23:37.407Z,24.70
2019-05-20T12:26:06.236Z,24.20
2019-05-20T12:28:35.025Z,24.00
2019-05-20T12:31:03.858Z,24.10
2019-05-20T12:33:32.713Z,24.50
2019-05-20T12:36:01.489Z,24.40
2019-05-20T12:38:30.310Z,24.10
2019-05-20T12:40:59.101Z,24.60
2019-05-20T12:43:27.845Z,24.80
2019-05-20T12:45:56.763Z,25.10
2019-05-20T12:48:25.577Z,25.30
2019-05-20T12:50:54.372Z,25.60
2019-05-20T12:53:23.146Z,25.80
2019-05-20T12:55:51.974Z,25.70
2019-05-20T12:58:20.866Z,25.70
2019-05-20T13:00:49.745Z,25.80
2019-05-20T13:03:18.787Z,25.90
2019-05-20T13:05:47.834Z,26.10
2019-05-20T13:08:16.644Z,26.30
2019-05-20T13:10:45.432Z,26.50
2019-05-20T13:13:14.168Z,26.40
2019-05-20T13:15:42.923Z,26.40
2019-05-20T13:18:11.730Z,26.50
2019-05-20T13:20:40.523Z,26.40
2019-05-20T13:23:11.543Z,26.60
2019-05-20T13:25:39.780Z,26.00
2019-05-20T13:28:08.536Z,26.00
2019-05-20T13:30:37.346Z,26.20
2019-05-20T13:33:06.161Z,26.30
2019-05-20T13:35:34.962Z,26.40
2019-05-20T13:38:03.731Z,26.40
2019-05-20T13:40:45.760Z,26.50
2019-05-20T13:43:03.078Z,26.30
2019-05-20T13:45:31.932Z,26.40
2019-05-20T13:48:00.744Z,26.50
2019-05-20T13:50:29.608Z,26.80
2019-05-20T13:52:58.434Z,26.70
2019-05-20T13:55:27.225Z,26.50
2019-05-20T13:57:56.076Z,26.60
2019-05-20T14:00:25.007Z,26.40
2019-05-20T14:02:53.848Z,26.60
2019-05-20T14:05:22.661Z,26.90
2019-05-20T14:07:51.484Z,27.10
2019-05-20T14:10:20.264Z,27.30
2019-05-20T14:12:49.169Z,27.90
2019-05-20T14:15:17.986Z,28.20
2019-05-20T14:17:47.015Z,28.40
2019-05-20T14:20:16.224Z,28.60
2019-05-20T14:22:44.970Z,28.70
2019-05-20T14:25:14.150Z,28.60
2019-05-20T14:27:43.023Z,28.70
2019-05-20T14:30:12.181Z,28.70
2019-05-20T14:32:41.109Z,28.40
2019-05-20T14:35:10.198Z,28.40
2019-05-20T14:37:38.953Z,28.40
2019-05-20T14:40:08.429Z,28.30
2019-05-20T14:42:37.393Z,27.80
2019-05-20T14:45:07.664Z,27.90
2019-05-20T14:47:36.466Z,27.70
2019-05-20T14:50:07.517Z,27.80
2019-05-20T14:52:36.441Z,28.10
2019-05-20T14:55:06.134Z,28.50
2019-05-20T14:57:34.871Z,28.80
2019-05-20T15:00:04.555Z,28.90
2019-05-20T15:02:33.405Z,28.80
2019-05-20T15:05:02.515Z,28.90
2019-05-20T15:07:31.641Z,28.70
2019-05-20T15:10:00.501Z,28.90
2019-05-20T15:12:29.379Z,29.00
2019-05-20T15:14:58.271Z,29.00
2019-05-20T15:17:27.140Z,28.90
2019-05-20T15:19:55.986Z,29.00
2019-05-20T15:22:24.964Z,28.90
2019-05-20T15:24:53.733Z,28.90
2019-05-20T15:27:22.581Z,28.80
2019-05-20T15:29:51.406Z,28.80
2019-05-20T15:32:20.159Z,28.80
2019-05-20T15:34:48.991Z,28.90
2019-05-20T15:37:17.782Z,28.80
2019-05-20T15:39:46.680Z,28.70
2019-05-20T15:42:15.460Z,28.50
2019-05-20T15:44:44.325Z,28.50
2019-05-20T15:47:13.185Z,28.40
2019-05-20T15:49:41.941Z,28.70
2019-05-20T15:52:10.843Z,28.80
2019-05-20T15:54:39.677Z,28.90
2019-05-20T15:57:08.527Z,28.90
2019-05-20T15:59:46.044Z,28.90
2019-05-20T16:02:07.900Z,28.60
2019-05-20T16:04:36.730Z,28.80
2019-05-20T16:07:05.540Z,28.80
2019-05-20T16:09:34.346Z,29.00
2019-05-20T16:12:03.205Z,28.90
2019-05-20T16:14:31.963Z,29.10
2019-05-20T16:17:00.812Z,29.10
2019-05-20T16:19:29.584Z,29.30
2019-05-20T16:21:58.392Z,29.20
2019-05-20T16:24:27.261Z,29.10
2019-05-20T16:26:56.042Z,29.40
2019-05-20T16:29:24.850Z,29.50
2019-05-20T16:31:53.671Z,29.30
2019-05-20T16:34:22.551Z,29.20
2019-05-20T16:36:51.349Z,29.20
2019-05-20T16:39:20.156Z,29.20
2019-05-20T16:41:48.976Z,29.10
2019-05-20T16:44:17.847Z,29.30
2019-05-20T16:46:46.689Z,29.40
2019-05-20T16:49:15.503Z,29.30
2019-05-20T16:51:44.257Z,29.60
2019-05-20T16:54:13.325Z,29.80
2019-05-20T16:56:42.199Z,30.10
2019-05-20T16:59:11.074Z,31.10
2019-05-20T17:01:46.224Z,30.60
2019-05-20T17:04:10.499Z,30.50
2019-05-20T17:06:39.267Z,30.60
2019-05-20T17:09:08.434Z,30.90
2019-05-20T17:11:37.219Z,31.10
2019-05-20T17:14:06.132Z,31.10
2019-05-20T17:16:34.990Z,31.40
2019-05-20T17:19:03.785Z,31.50
2019-05-20T17:21:32.656Z,31.90
2019-05-20T17:24:01.533Z,32.20
2019-05-20T17:29:59.026Z,32.60
2019-05-20T17:32:27.804Z,33.20
2019-05-20T17:34:56.599Z,33.70
2019-05-20T17:37:25.442Z,34.20
2019-05-20T17:39:54.245Z,34.80
2019-05-20T17:42:23.112Z,35.10
2019-05-20T17:44:51.959Z,35.50
2019-05-20T17:47:20.776Z,36.10
2019-05-20T17:49:49.723Z,36.60
2019-05-20T17:52:21.904Z,37.00
2019-05-20T17:54:50.816Z,37.40
2019-05-20T17:57:19.594Z,37.80
2019-05-20T17:59:48.371Z,38.10
2019-05-20T18:02:17.235Z,38.30
2019-05-20T18:04:46.020Z,38.60
2019-05-20T18:07:14.881Z,39.10
2019-05-20T18:09:47.695Z,39.40
2019-05-20T18:12:16.788Z,39.70
2019-05-20T18:14:47.188Z,40.10
2019-05-20T18:17:20.117Z,40.40
2019-05-20T18:19:48.971Z,40.80
2019-05-20T18:22:17.754Z,41.20
2019-05-20T18:24:46.546Z,41.50
2019-05-20T18:27:15.319Z,42.10
2019-05-20T18:29:44.145Z,42.40
2019-05-20T18:36:08.899Z,43.20
2019-05-20T18:38:37.710Z,43.60
2019-05-20T18:41:06.573Z,43.90
2019-05-20T18:43:35.351Z,44.20
2019-05-20T18:46:04.481Z,44.30
2019-05-20T18:48:33.267Z,44.70
2019-05-20T18:51:02.109Z,44.80
2019-05-20T18:53:30.935Z,45.10
2019-05-20T18:55:59.845Z,45.30
2019-05-20T18:58:28.690Z,45.50
2019-05-20T19:00:57.456Z,45.60
2019-05-20T19:03:27.127Z,46.40
2019-05-20T19:05:56.801Z,46.00
2019-05-20T19:08:25.723Z,46.20
2019-05-20T19:10:54.645Z,46.50
2019-05-20T19:13:23.554Z,46.70
2019-05-20T19:15:52.403Z,46.80
2019-05-20T19:18:21.180Z,47.10
2019-05-20T19:20:50.000Z,47.20
2019-05-20T19:23:18.774Z,47.20
2019-05-20T19:25:47.626Z,47.30
2019-05-20T19:28:16.348Z,47.30
2019-05-20T19:30:45.128Z,47.40
2019-05-20T19:33:15.298Z,47.40
2019-05-20T19:35:44.081Z,47.50
2019-05-20T19:38:12.938Z,47.40
2019-05-20T19:40:41.876Z,47.50
2019-05-20T19:43:10.720Z,47.50
2019-05-20T19:45:39.581Z,47.40
2019-05-20T19:48:08.452Z,47.50
2019-05-20T19:50:38.552Z,47.40
2019-05-20T19:53:07.492Z,47.60
2019-05-20T19:55:36.402Z,47.90
2019-05-20T19:58:05.773Z,48.20
2019-05-20T20:00:38.198Z,49.00
2019-05-20T20:03:08.399Z,49.70
2019-05-20T20:09:18.152Z,51.20
2019-05-20T20:11:47.040Z,52.50
2019-05-20T20:14:15.810Z,53.40
2019-05-20T20:16:44.621Z,53.70
2019-05-20T20:19:16.474Z,54.30
2019-05-20T20:21:45.292Z,54.90
2019-05-20T20:24:14.110Z,55.30
2019-05-20T20:26:42.855Z,55.60
2019-05-20T20:29:11.682Z,56.40
2019-05-20T20:31:40.464Z,57.30
2019-05-20T20:34:09.346Z,57.80
2019-05-20T20:36:38.165Z,58.20
2019-05-20T20:39:07.308Z,58.70
2019-05-20T20:41:36.113Z,59.50
2019-05-20T20:44:05.033Z,60.80
2019-05-20T20:46:33.836Z,62.10
2019-05-20T20:49:02.837Z,62.90
2019-05-20T20:51:31.615Z,65.50
2019-05-20T20:54:00.359Z,68.90
2019-05-20T20:56:29.159Z,70.00
2019-05-20T20:58:57.938Z,70.40
2019-05-20T21:01:26.779Z,70.70
2019-05-20T21:03:55.518Z,72.60
2019-05-20T21:06:24.298Z,72.50
2019-05-20T21:08:53.134Z,74.40
2019-05-20T21:11:22.005Z,78.80
2019-05-20T21:13:50.802Z,81.30
2019-05-20T21:16:19.603Z,80.40
2019-05-20T21:18:48.346Z,81.40
2019-05-20T21:21:17.118Z,83.40
2019-05-20T21:23:45.950Z,82.90
2019-05-20T21:26:14.722Z,83.40
2019-05-20T21:28:43.521Z,82.30
2019-05-20T21:31:12.368Z,81.70
2019-05-20T21:33:41.254Z,81.00
2019-05-20T21:36:10.055Z,81.00
2019-05-20T21:38:38.864Z,81.90
2019-05-20T21:41:07.647Z,83.70
2019-05-20T21:43:36.441Z,90.10
2019-05-20T21:46:05.308Z,93.30
2019-05-20T21:48:34.330Z,94.70
2019-05-20T21:51:04.153Z,95.90
2019-05-20T21:53:32.933Z,97.40
2019-05-20T21:56:01.804Z,98.80
2019-05-20T21:58:30.687Z,99.50
2019-05-20T22:00:59.822Z,99.90
2019-05-20T22:03:28.710Z,99.90
2019-05-20T22:05:57.595Z,99.90
2019-05-20T22:08:26.407Z,99.90
2019-05-20T22:10:55.327Z,99.90
2019-05-20T22:13:24.120Z,99.90
2019-05-20T22:15:52.908Z,99.90
2019-05-20T22:18:21.694Z,99.90
2019-05-20T22:20:50.528Z,99.90
2019-05-20T22:23:29.759Z,99.90
2019-05-20T22:25:58.635Z,99.90
2019-05-20T22:31:56.238Z,99.90
2019-05-20T22:34:25.007Z,99.90
2019-05-20T22:36:53.815Z,99.90
2019-05-20T22:39:22.649Z,99.90
2019-05-20T22:41:51.411Z,99.90
2019-05-20T22:44:20.303Z,99.90
2019-05-20T22:46:49.111Z,99.90
2019-05-20T22:49:17.919Z,99.90
2019-05-20T22:51:46.772Z,99.90
2019-05-20T22:54:15.684Z,99.90
2019-05-20T22:56:44.498Z,99.90
2019-05-20T22:59:13.355Z,99.90
2019-05-20T23:01:42.192Z,99.90
2019-05-20T23:04:11.078Z,99.90
2019-05-20T23:06:39.892Z,99.90
2019-05-20T23:09:10.788Z,99.90
2019-05-20T23:11:39.318Z,99.90
2019-05-20T23:14:08.169Z,99.90
2019-05-20T23:16:36.964Z,99.90
2019-05-20T23:19:05.788Z,99.90
2019-05-20T23:21:34.578Z,99.90
2019-05-20T23:24:03.359Z,99.90
2019-05-20T23:26:32.155Z,99.90
2019-05-20T23:29:00.999Z,99.90
2019-05-20T23:31:29.919Z,98.80
2019-05-20T23:34:11.664Z,98.50
2019-05-20T23:36:29.150Z,98.00
2019-05-20T23:38:57.928Z,97.70
2019-05-20T23:41:26.756Z,97.10
2019-05-20T23:43:55.529Z,97.10
2019-05-20T23:46:24.394Z,96.80
2019-05-20T23:48:53.183Z,95.80
2019-05-20T23:51:22.025Z,96.00
2019-05-20T23:53:50.766Z,96.00
2019-05-20T23:56:19.828Z,95.20
2019-05-20T23:58:48.768Z,94.90
